McAlester, OK (74501)

8:02 PM CST on February 08, 2016 (GMT -0600)
South McAlester | | Change Station
CLOSE
Current Station
Personal Weather Station
Location: McAlester, OK
Elevation: 751 ft
Nearby Weather Stations

Elev 751 ft 34.92 °N, 95.75 °W | Updated 16 seconds ago

Clear
Clear
41.5 °F
Feels Like 42 °F
N
2.2
Wind Variable Wind from NNW

Today
High -- | Low -- °F
--% Chance of Precip.
Yesterday
High -- | Low -- °F
Precip. -- in
Pressure 30.22 in
Visibility 10.0 miles
Clouds Few 7000 ft
Few 9000 ft
Few 11000 ft
Windchill 42 °F
Dew Point 14 °F
Humidity 32%
Rainfall 0.00 in
Snow Depth Not available.
7:16 AM 5:58 PM
New Moon, 0% visible
METAR KMLC 090153Z AUTO 31012G18KT 10SM FEW070 FEW090 FEW110 06/M11 A3021 RMK AO2 SLP231 T00611111
Pressure 30.22 in
Visibility 10.0 miles
Clouds Few 7000 ft
Few 9000 ft
Few 11000 ft
Windchill 42 °F
Dew Point 14 °F
Humidity 32%
Rainfall 0.00 in
Snow Depth Not available.
7:16 AM 5:58 PM
New Moon, 0% visible
METAR KMLC 090153Z AUTO 31012G18KT 10SM FEW070 FEW090 FEW110 06/M11 A3021 RMK AO2 SLP231 T00611111

10-Day Weather Forecast

Almanac

Astronomy

Feb. 08, 2016 Rise Set
Actual Time
Civil Twilight
Nautical Twilight
Astronomical Twilight
Moon
Length of Visible Light
Length of Day
Tomorrow will be .
, % of the Moon is Illuminated

Today's Extremes

State Highs State Lows

Community

WunderPhotos

Upload Photos

1,891,527 photos uploaded!

WunderBlog® & News

Nearby

Air Quality

  Air Quality AQ Index Pollutant
Not available.

Snow Depth

Station Depth Elevation

Earthquake Activity

City Distance Mag. Time & Date
Minimum magnitude displayed is 2.5.

Coastal Water Temperatures

Place Temperature

Stations

Nearby Weather Stations

Station Location Temp. Windchill Dew Point Humidity Wind Precip. Elev Updated Type
                   

Watches & Warnings

There are currently no watches in effect.